• Join FlightAware (Why Join?)
  • Login
  • US Flag 
04:50AM EST


 

Airport Tracker/Info


-or-


 

Live Flight TrackerFlight Track Log ✈ AAL1358 ✈ 26-Apr-2013 ✈ KSEA - KORD

Flight Track Log - Related Links

Times and Time Zones

All times are in EDT time to prevent confusion due to time zone crossing. See the AAL1358 flight status page for this flight to view local times or setup timezone preferences in your user account.

Time Position Orientation Groundspeed Altitude Reporting Facility
EDT Latitude Longitude Course Direction KTS MPH feet Rate Location/Type
07:01PM 47.5050 -121.9436 72° East  Level FlightAware Approximate
07:02PM 47.5434 -121.7645 72° East  Level FlightAware Approximate
07:03PM 47.5500 -121.5779 90° East  Level FlightAware Approximate
07:04PM 47.5500 -121.3898 90° East  Level FlightAware Approximate
07:04PM 47.3670 -121.9690 90° East 339 390 10,900  Level FlightAware
07:05PM 47.5500 -121.2017 90° East  Level FlightAware Approximate
07:05PM 47.4160 -121.8610 56° Northeast 383 441 12,900  Level FlightAware
07:06PM 47.4650 -121.7510 57° Northeast 390 449 14,000 1,920 Climbing FlightAware
07:07PM 47.5320 -121.6050 56° Northeast 414 476 16,600 2,880 Climbing FlightAware
07:07PM 47.5590 -121.4770 73° East 435 501 19,100 2,640 Climbing FlightAware
07:08PM 47.5560 -121.3000 91° East 455 524 21,000 2,040 Climbing FlightAware
07:09PM 47.5540 -121.1890 91° East 463 533 22,200 1,860 Climbing FlightAware
07:10PM 47.5520 -121.0320 91° East 474 545 23,700 1,560 Climbing FlightAware
07:11PM 47.5480 -120.8520 92° East 491 565 25,000 1,500 Climbing FlightAware
07:11PM 47.5450 -120.7130 92° East 501 577 26,100 1,500 Climbing FlightAware
07:12PM 47.5420 -120.5590 92° East 511 588 27,200 1,320 Climbing FlightAware
07:13PM 47.5350 -120.3130 92° East 521 600 28,700 1,320 Climbing FlightAware
07:14PM 47.5050 -120.0730 100° East 526 605 30,300 1,500 Climbing FlightAware
07:15PM 47.4720 -119.8520 102° East 518 596 32,100 1,560 Climbing FlightAware
07:16PM 47.4510 -119.7080 102° East 516 594 33,100 1,380 Climbing FlightAware
07:17PM 47.4360 -119.5760 99° East 516 594 34,000 600 Climbing FlightAware
07:18PM 47.4180 -119.4410 101° East 516 594 34,000  Level FlightAware
07:18PM 47.3990 -119.2930 101° East 516 594 34,000  Level FlightAware
07:19PM 47.3830 -119.1760 101° East 516 594 34,000  Level FlightAware
07:20PM 47.3680 -119.0580 101° East 516 594 34,000  Level FlightAware
07:20PM 47.3520 -118.9400 101° East 516 594 34,000  Level FlightAware
07:21PM 47.3370 -118.8230 101° East 516 594 34,000  Level FlightAware
07:22PM 47.3210 -118.7050 101° East 516 594 34,000  Level FlightAware
07:23PM 47.3020 -118.5580 101° East 516 594 34,000  Level FlightAware
07:23PM 47.2860 -118.4410 101° East 516 594 34,000  Level FlightAware
07:24PM 47.2710 -118.3240 101° East 516 594 34,000  Level FlightAware
07:25PM 47.2550 -118.2060 101° East 516 594 34,000  Level FlightAware
07:25PM 47.2360 -118.0590 101° East 516 594 34,000  Level FlightAware
07:26PM 47.2200 -117.9420 101° East 516 594 34,000  Level FlightAware
07:27PM 47.2050 -117.8250 101° East 516 594 34,000 1,680 Level FlightAware
07:28PM 47.4781 -117.3069 101° East 504 580 36,900 1,440 Climbing Seattle Center
07:29PM 47.4786 -117.1056 90° East 506 582 37,000  Climbing Seattle Center
07:30PM 47.4814 -116.9047 89° East 506 582 37,000  Level Seattle Center
07:31PM 47.4819 -116.7011 90° East 504 580 37,000 -60 Level Seattle Center
07:32PM 47.4825 -116.4956 90° East 504 580 36,900  Descending Seattle Center
07:33PM 47.4831 -116.2917 90° East 499 574 37,000  Climbing Seattle Center
07:34PM 47.4822 -116.0892 90° East 496 571 37,000  Level Seattle Center
07:35PM 47.4828 -115.8889 90° East 491 565 37,000  Level Seattle Center
07:36PM 47.4819 -115.6858 90° East 491 565 37,000  Level Seattle Center
07:37PM 47.4808 -115.4444 90° East 492 566 37,000  Level Seattle Center
07:38PM 47.4794 -115.2475 91° East 486 559 37,000  Level Seattle Center
07:39PM 47.4789 -115.0494 90° East 485 558 37,000 -60 Level Seattle Center
07:40PM 47.4764 -114.8506 91° East 486 559 36,900  Descending Seattle Center
07:41PM 47.4731 -114.6519 91° East 487 560 37,000 60 Climbing Seattle Center
07:41PM 47.4719 -114.5708 91° East 487 560 37,000 -120 Level Salt Lake Center
07:42PM 47.4692 -114.3739 91° East 487 560 36,900  Descending Salt Lake Center
07:43PM 47.4653 -114.1764 92° East 486 559 37,000  Climbing Salt Lake Center
07:44PM 47.4611 -113.9803 92° East 484 557 36,900 -60 Descending Salt Lake Center
07:45PM 47.4572 -113.7806 92° East 489 563 36,900  Level Salt Lake Center
07:46PM 47.4517 -113.5439 92° East 485 558 36,900  Level Salt Lake Center
07:47PM 47.4469 -113.3442 92° East 489 563 36,900  Level Salt Lake Center
07:48PM 47.4417 -113.1453 92° East 488 562 37,000  Climbing Salt Lake Center
07:50PM 47.4364 -112.9469 92° East 487 560 36,900  Descending Salt Lake Center
07:51PM 47.4311 -112.7425 92° East 491 565 37,000  Climbing Salt Lake Center
07:52PM 47.4244 -112.5369 93° East 490 564 37,000  Level Salt Lake Center
07:53PM 47.4175 -112.3403 93° East 494 568 37,000 -60 Level Salt Lake Center
07:54PM 47.4097 -112.0981 93° East 495 570 36,900  Descending Salt Lake Center
07:55PM 47.4019 -111.8978 93° East 493 567 37,000  Climbing Salt Lake Center
07:56PM 47.3936 -111.7003 93° East 489 563 36,900 -60 Descending Salt Lake Center
07:57PM 47.3861 -111.5042 93° East 487 560 36,900  Level Salt Lake Center
07:58PM 47.3772 -111.3075 94° East 489 563 37,000  Climbing Salt Lake Center
07:59PM 47.3681 -111.0731 93° East 487 560 37,000  Level Salt Lake Center
08:00PM 47.3589 -110.8781 94° East 484 557 37,000  Level Salt Lake Center
08:01PM 47.3494 -110.6833 94° East 481 554 37,000 -60 Level Salt Lake Center
08:02PM 47.3400 -110.4856 94° East 484 557 36,900  Descending Salt Lake Center
08:03PM 47.3297 -110.2889 94° East 485 558 37,000  Climbing Salt Lake Center
08:04PM 47.3203 -110.0908 94° East 488 562 37,000  Level Salt Lake Center
08:05PM 47.3100 -109.8922 94° East 488 562 37,000 -60 Level Salt Lake Center
08:06PM 47.2953 -109.6542 95° East 490 564 36,900  Descending Salt Lake Center
08:07PM 47.2839 -109.4553 95° East 489 563 37,000  Climbing Salt Lake Center
08:08PM 47.2728 -109.2536 95° East 494 568 36,900  Descending Salt Lake Center
08:09PM 47.2600 -109.0558 95° East 491 565 37,000  Climbing Salt Lake Center
08:10PM 47.2464 -108.8564 96° East 492 566 36,900  Descending Salt Lake Center
08:11PM 47.2342 -108.6561 95° East 493 567 37,000  Climbing Salt Lake Center
08:12PM 47.2203 -108.4292 95° East 493 567 36,900  Descending Salt Lake Center
08:13PM 47.2061 -108.2172 96° East 490 564 37,000  Climbing Salt Lake Center
08:14PM 47.1919 -108.0297 96° East 485 558 37,000  Level Salt Lake Center
08:15PM 47.1761 -107.8089 96° East 485 558 37,000  Level Salt Lake Center
08:16PM 47.1622 -107.6206 96° East 486 559 37,000  Level Salt Lake Center
08:17PM 47.1478 -107.4325 96° East 484 557 37,000  Level Salt Lake Center
08:18PM 47.1297 -107.2125 97° East 484 557 37,000  Level Salt Lake Center
08:19PM 47.1156 -107.0256 96° East 483 556 37,000  Level Salt Lake Center
08:20PM 47.0983 -106.8069 97° East 482 555 37,000  Level Salt Lake Center
08:21PM 47.0814 -106.6217 98° East 480 552 37,000  Level Salt Lake Center
08:22PM 47.0625 -106.4042 97° East 480 552 37,000 -60 Level Salt Lake Center
08:23PM 47.0486 -106.2433 97° East 479 551 36,900 -60 Descending Salt Lake Center
08:24PM 47.0322 -106.0533 97° East 475 547 36,900  Level Salt Lake Center
08:25PM 47.0111 -105.8228 98° East 477 549 37,000  Climbing Salt Lake Center
08:27PM 46.9928 -105.6303 98° East 478 550 37,000  Level Salt Lake Center
08:28PM 46.9742 -105.4397 98° East 476 548 37,000  Level Salt Lake Center
08:29PM 46.9553 -105.2464 98° East 479 551 37,000  Level Salt Lake Center
08:30PM 46.9361 -105.0558 98° East 480 552 37,000  Level Salt Lake Center
08:31PM 46.9175 -104.8664 98° East 476 548 37,000  Level Salt Lake Center
08:32PM 46.8986 -104.6756 98° East 476 548 37,000 -60 Level Salt Lake Center
08:33PM 46.8747 -104.4472 99° East 477 549 36,900 -60 Descending Salt Lake Center
08:34PM 46.8547 -104.2583 99° East 475 547 36,900  Level Salt Lake Center
08:35PM 46.8353 -104.0694 98° East 474 545 37,000  Climbing Salt Lake Center
08:36PM 46.8150 -103.8822 99° East 473 544 37,000  Level Salt Lake Center
08:37PM 46.7953 -103.6944 99° East 472 543 37,000  Level Salt Lake Center
08:38PM 46.7750 -103.5067 99° East 472 543 37,000  Level Salt Lake Center
08:39PM 46.7494 -103.2814 99° East 472 543 37,000  Level Salt Lake Center
08:40PM 46.7283 -103.0956 99° East 471 542 37,000  Level Salt Lake Center
08:41PM 46.7067 -102.9117 100° East 468 539 37,000  Level Salt Lake Center
08:41PM 46.6981 -102.8400 100° East 469 540 37,000 -120 Level Minneapolis Center
08:42PM 46.6764 -102.6542 100° East 469 540 36,900 -60 Descending Minneapolis Center
08:43PM 46.6500 -102.4708 102° East 468 539 36,900  Level Minneapolis Center
08:44PM 46.6169 -102.2867 105° East 471 542 37,000  Climbing Minneapolis Center
08:45PM 46.5778 -102.0700 105° East 467 537 37,000  Level Minneapolis Center
08:46PM 46.5447 -101.8906 105° East 464 534 37,000  Level Minneapolis Center
08:48PM 46.5117 -101.7111 105° East 463 533 37,000  Level Minneapolis Center
08:49PM 46.4744 -101.5178 106° East 464 534 37,000  Level Minneapolis Center
08:50PM 46.4403 -101.3361 105° East 465 535 37,000  Level Minneapolis Center
08:51PM 46.4064 -101.1561 105° East 464 534 37,000  Level Minneapolis Center
08:52PM 46.3725 -100.9747 105° East 465 535 37,000  Level Minneapolis Center
08:53PM 46.3294 -100.7586 106° East 466 536 37,000  Level Minneapolis Center
08:54PM 46.2942 -100.5792 106° East 464 534 37,000  Level Minneapolis Center
08:55PM 46.2589 -100.4000 106° East 463 533 37,000  Level Minneapolis Center
08:56PM 46.2231 -100.2203 106° East 464 534 37,000  Level Minneapolis Center
08:57PM 46.1875 -100.0422 106° East 462 532 37,000  Level Minneapolis Center
08:58PM 46.1519 -99.8628 106° East 463 533 37,000  Level Minneapolis Center
08:59PM 46.1150 -99.6850 107° East 462 532 37,000  Level Minneapolis Center
09:00PM 46.0711 -99.4722 106° East 462 532 37,000  Level Minneapolis Center
09:01PM 46.0342 -99.2953 107° East 460 529 37,000  Level Minneapolis Center
09:02PM 45.9975 -99.1208 107° East 458 527 37,000  Level Minneapolis Center
09:03PM 45.9603 -98.9439 107° East 459 528 37,000  Level Minneapolis Center
09:04PM 45.9225 -98.7689 107° East 458 527 37,000  Level Minneapolis Center
09:05PM 45.8856 -98.5922 107° East 460 529 37,000  Level Minneapolis Center
09:06PM 45.8486 -98.4186 107° East 458 527 37,000  Level Minneapolis Center
09:07PM 45.8008 -98.2078 108° East 459 528 37,000  Level Minneapolis Center
09:08PM 45.7622 -98.0353 108° East 460 529 37,000  Level Minneapolis Center
09:09PM 45.7233 -97.8639 108° East 457 526 37,000  Level Minneapolis Center
09:10PM 45.6853 -97.6942 108° East 451 519 37,000  Level Minneapolis Center
09:11PM 45.6472 -97.5236 108° East 450 518 37,000  Level Minneapolis Center
09:12PM 45.6083 -97.3536 108° East 450 518 37,000  Level Minneapolis Center
09:13PM 45.5622 -97.1511 108° East 449 517 37,000  Level Minneapolis Center
09:14PM 45.5217 -96.9833 109° East 448 516 37,000  Level Minneapolis Center
09:15PM 45.4822 -96.8153 108° East 447 514 37,000  Level Minneapolis Center
09:16PM 45.4431 -96.6481 108° East 445 512 37,000  Level Minneapolis Center
09:17PM 45.4036 -96.4783 108° East 449 517 37,000  Level Minneapolis Center
09:19PM 45.3636 -96.3122 109° East 447 514 37,000  Level Minneapolis Center
09:20PM 45.3153 -96.1122 109° East 445 512 37,000  Level Minneapolis Center
09:21PM 45.2750 -95.9464 109° East 445 512 37,000  Level Minneapolis Center
09:22PM 45.2347 -95.7808 109° East 444 511 37,000  Level Minneapolis Center
09:23PM 45.1931 -95.6150 110° East 445 512 37,000  Level Minneapolis Center
09:24PM 45.1519 -95.4489 109° East 447 514 37,000  Level Minneapolis Center
09:25PM 45.1108 -95.2831 109° East 447 514 37,000  Level Minneapolis Center
09:26PM 45.0689 -95.1172 110° East 448 516 37,000  Level Minneapolis Center
09:27PM 45.0186 -94.9175 110° East 449 517 37,000  Level Minneapolis Center
09:28PM 44.9761 -94.7522 110° East 449 517 37,000  Level Minneapolis Center
09:29PM 44.9339 -94.5922 110° East 452 520 37,000  Level Minneapolis Center
09:30PM 44.8914 -94.4267 110° East 452 520 37,000  Level Minneapolis Center
09:31PM 44.8467 -94.2603 111° Southeast 455 524 37,000  Level Minneapolis Center
09:32PM 44.7947 -94.0622 110° East 453 521 37,000 -360 Level Minneapolis Center
09:38PM 44.5460 -93.1380 110° East 456 525 35,000 -360 Descending FlightAware
09:38PM 44.5210 -93.0490 111° Southeast 456 525 35,000  Level FlightAware
09:39PM 44.4950 -92.9550 111° Southeast 456 525 35,000  Level FlightAware
09:40PM 44.4630 -92.8380 111° Southeast 456 525 35,000  Level FlightAware
09:40PM 44.4380 -92.7440 110° East 456 525 35,000  Level FlightAware
09:41PM 44.4120 -92.6500 111° Southeast 456 525 35,000  Level FlightAware
09:42PM 44.3560 -92.4810 115° Southeast 463 533 35,000  Level FlightAware
09:42PM 44.3050 -92.3400 117° Southeast 464 534 35,000  Level FlightAware
09:43PM 44.2600 -92.2200 118° Southeast 465 535 35,000  Level FlightAware
09:44PM 44.2220 -92.1160 117° Southeast 466 536 35,000  Level FlightAware
09:45PM 44.1790 -92.0010 118° Southeast 466 536 35,000  Level FlightAware
09:45PM 44.1380 -91.8900 117° Southeast 467 537 35,000  Level FlightAware
09:46PM 44.0980 -91.7820 117° Southeast 467 537 35,000  Level FlightAware
09:47PM 44.0530 -91.6630 118° Southeast 466 536 35,000  Level FlightAware
09:47PM 44.0140 -91.5570 117° Southeast 466 536 35,000  Level FlightAware
09:48PM 43.9810 -91.4710 118° Southeast 466 536 35,000 -120 Level FlightAware
09:49PM 43.9270 -91.3290 118° Southeast 466 536 34,900 -540 Descending FlightAware
09:49PM 43.8880 -91.2260 118° Southeast 457 526 34,200 -1,200 Descending FlightAware
09:50PM 43.8440 -91.1110 118° Southeast 451 519 33,200 -2,160 Descending FlightAware
09:51PM 43.8040 -91.0050 118° Southeast 473 544 31,200 -1,680 Descending FlightAware
09:51PM 43.7650 -90.9040 118° Southeast 471 542 31,000 -480 Descending FlightAware
09:52PM 43.7200 -90.7870 118° Southeast 462 532 30,600 -1,320 Descending FlightAware
09:53PM 43.6820 -90.6900 118° Southeast 457 526 29,300 -2,100 Descending FlightAware
09:54PM 43.6340 -90.5660 118° Southeast 450 518 27,700 -1,980 Descending FlightAware
09:54PM 43.5930 -90.4620 119° Southeast 455 524 26,400 -1,860 Descending FlightAware
09:55PM 43.5480 -90.3480 119° Southeast 454 522 25,100 -1,680 Descending FlightAware
09:56PM 43.5080 -90.2470 119° Southeast 450 518 24,100 -1,620 Descending FlightAware
09:56PM 43.4710 -90.1520 118° Southeast 443 510 23,000 -1,680 Descending FlightAware
09:57PM 43.4260 -90.0380 118° Southeast 441 507 21,800 -1,680 Descending FlightAware
09:58PM 43.3870 -89.9410 119° Southeast 430 495 20,700 -1,680 Descending FlightAware
09:59PM 43.3450 -89.8360 119° Southeast 421 484 19,500 -1,680 Descending FlightAware
09:59PM 43.3070 -89.7420 119° Southeast 419 482 18,400 -1,500 Descending FlightAware
10:00PM 43.2670 -89.6410 119° Southeast 408 470 17,400 -1,440 Descending FlightAware
10:01PM 43.2290 -89.5460 119° Southeast 405 466 16,400 -1,380 Descending FlightAware
10:01PM 43.1890 -89.4490 119° Southeast 393 452 15,500 -1,320 Descending FlightAware
10:02PM 43.1530 -89.3640 120° Southeast 386 444 14,600 -1,320 Descending FlightAware
10:02PM 43.1320 -89.3390 139° Southeast 382 440 14,300 -1,200 Descending FlightAware
10:03PM 43.1090 -89.3250 156° South 378 435 14,000 -1,320 Descending FlightAware
10:03PM 43.0430 -89.2980 163° South 375 432 13,100 -1,020 Descending FlightAware
10:04PM 42.9780 -89.2720 164° South 364 419 12,700 -300 Descending FlightAware
10:05PM 42.9030 -89.2430 164° South 362 417 12,700  Level FlightAware
10:05PM 42.8390 -89.2170 163° South 367 422 12,700  Level FlightAware
10:06PM 42.7740 -89.1910 164° South 366 421 12,700  Level FlightAware
10:07PM 42.6990 -89.1610 164° South 368 423 12,700  Level FlightAware
10:07PM 42.6360 -89.1360 164° South 368 423 12,700  Level FlightAware
10:08PM 42.5650 -89.0970 158° South 370 426 12,700  Level FlightAware
10:09PM 42.5410 -89.0510 125° Southeast 371 427 12,700  Level FlightAware
10:09PM 42.5120 -88.9500 111° Southeast 371 427 12,700  Level FlightAware
10:10PM 42.4850 -88.8630 113° Southeast 370 426 12,700 -120 Level FlightAware
10:11PM 42.4600 -88.7800 112° Southeast 367 422 12,600 -1,080 Descending FlightAware
10:11PM 42.4320 -88.6870 112° Southeast 355 409 11,200 -1,920 Descending FlightAware
10:12PM 42.4060 -88.6020 112° Southeast 344 396 9,900 -1,380 Descending FlightAware
10:13PM 42.3890 -88.5440 112° Southeast 314 361 9,600 -600 Descending FlightAware
10:13PM 42.3740 -88.4960 113° Southeast 301 346 9,300 -1,020 Descending FlightAware
10:13PM 42.3580 -88.4510 116° Southeast 301 346 8,700 -660 Descending FlightAware
10:14PM 42.3350 -88.4080 126° Southeast 291 335 8,700 -240 Level FlightAware
10:14PM 42.3120 -88.3710 130° Southeast 285 328 8,500 -780 Descending FlightAware
10:15PM 42.2880 -88.3330 130° Southeast 282 325 8,000 -1,020 Descending FlightAware
10:15PM 42.2630 -88.2930 130° Southeast 278 320 7,500 -1,020 Descending FlightAware
10:16PM 42.2450 -88.2640 130° Southeast 276 318 7,100 -1,200 Descending FlightAware
10:16PM 42.2180 -88.2200 130° Southeast 271 312 6,400 -1,500 Descending FlightAware
10:17PM 42.2040 -88.1990 132° Southeast 270 311 6,000 -1,680 Descending FlightAware
10:17PM 42.1850 -88.1680 130° Southeast 268 308 5,300 -1,560 Descending FlightAware
10:17PM 42.1620 -88.1300 129° Southeast 259 298 4,600 -1,200 Descending FlightAware
10:18PM 42.1410 -88.1030 136° Southeast 240 276 4,200 -1,080 Descending FlightAware
10:18PM 42.1290 -88.0900 141° Southeast 234 269 3,900 -1,200 Descending FlightAware
10:19PM 42.1050 -88.0620 139° Southeast 220 253 3,300 -1,200 Descending FlightAware
10:19PM 42.0870 -88.0420 140° Southeast 202 232 2,800 -1,140 Descending FlightAware
10:20PM 42.0670 -88.0190 140° Southeast 171 197 2,300 -1,020 Descending FlightAware
10:20PM 42.0530 -88.0030 140° Southeast 147 169 1,900 -780 Descending FlightAware
10:20PM 42.0370 -87.9860 142° Southeast 143 165 1,600 -720 Descending FlightAware
10:21PM 42.0230 -87.9690 138° Southeast 142 163 1,200 -780 Descending FlightAware
10:21PM 42.0090 -87.9540 141° Southeast 142 163 900 -780 Descending FlightAware
10:22PM 41.9940 -87.9370 140° Southeast 145 167 500 -840 Descending FlightAware